Terminal Aerodrome Forecast
Issued by NWS

Home | Current Version | Previous Version | Text Only | Print | Product List | Glossary On
Versions: 1 2 3 4 5 6 7 8 9 10 11 12
000
FTUS45 KRIW 221720
TAFCOD
TAF
KCOD 221720Z 2218/2318 02011KT P6SM SKC
     FM222300 04015G23KT P6SM SKC
     FM230500 36009KT P6SM FEW070
     FM230800 VRB05KT P6SM SKC
     FM231300 02007KT P6SM SCT060
      AMD LTD TO CLD VIS AND WIND=

USA.gov is the U.S. government's official web portal to all federal, state and local government web resources and services.